Academy, South Dakota
Current Conditions -  °F | °C
As of 5:35 PM on Saturday 22 Nov 2014 (Local Time) from K9V9 Reporting Station
Clear Clear  
Wind Chill: 39°   Ceiling: Unl
Heat Index: 42°   Visibility: 10mi
Dew Point: 32°   Wind: 6mph
Humidity: 67%   Direction: 270°W
Pressure: 29.41"   Gusts: NA
Location:  43.4255°N, 98.9806°W
Report Text: K9V9 222335Z AUTO 27005KT 10SM CLR 06/00 A2941 RMK AO2 T00571001
Loading
Personal Weather Stations






























Interactive Weather Map New forecast layout! Learn more

10-Day Weather Forecast

Advertisements
Track Severe Weather on mobile